Time;durP1;ratioP1;P1;durP2;ratioP2;P2;SDS_P1;SDS_P2;PMS_P1;PMS_P2;Temp;Humidity;BMP_temperature;BMP_pressure;BME280_temperature;BME280_humidity;BME280_pressure;Samples;Min_cycle;Max_cycle;Signal;HPM_P1;HPM_P2
2023/01/31 00:00:23;;;;;;;22.95;20.80;;;;;;;;;;5099367;28;20193;-82
2023/01/31 00:02:52;;;;;;;18.85;17.70;;;;;;;;;;5098668;28;20239;-82
2023/01/31 00:05:19;;;;;;;20.52;18.92;;;;;;;;;;5098204;28;20253;-81
2023/01/31 00:07:46;;;;;;;25.15;22.40;;;;;;;;;;5098959;28;20250;-82
2023/01/31 00:10:13;;;;;;;20.98;19.70;;;;;;;;;;5097520;28;20200;-82
2023/01/31 00:12:41;;;;;;;22.30;19.98;;;;;;;;;;5097520;28;20201;-82
2023/01/31 00:15:08;;;;;;;23.90;19.70;;;;;;;;;;5097642;28;20225;-82
2023/01/31 00:17:35;;;;;;;21.40;19.40;;;;;;;;;;5099019;28;20210;-82
2023/01/31 00:20:03;;;;;;;21.98;19.77;;;;;;;;;;5100851;28;20201;-82
2023/01/31 00:22:30;;;;;;;21.23;18.60;;;;;;;;;;5098597;28;20197;-82
2023/01/31 00:24:57;;;;;;;21.35;19.42;;;;;;;;;;5098114;28;20225;-82
2023/01/31 00:27:24;;;;;;;21.15;19.02;;;;;;;;;;5101914;28;20202;-82
2023/01/31 00:29:51;;;;;;;21.17;19.38;;;;;;;;;;5097412;28;20733;-82
2023/01/31 00:32:18;;;;;;;23.40;19.85;;;;;;;;;;5099470;28;20212;-82
2023/01/31 00:34:45;;;;;;;21.85;19.83;;;;;;;;;;5096831;28;20266;-81
2023/01/31 00:37:14;;;;;;;21.10;19.10;;;;;;;;;;5099651;28;20205;-82
2023/01/31 00:39:41;;;;;;;20.48;18.42;;;;;;;;;;5098141;28;20273;-82
2023/01/31 00:42:08;;;;;;;23.67;19.65;;;;;;;;;;5096654;28;20255;-82
2023/01/31 00:44:35;;;;;;;20.00;17.95;;;;;;;;;;5100664;28;20868;-82
2023/01/31 00:47:02;;;;;;;19.45;17.95;;;;;;;;;;5097383;28;20281;-82
2023/01/31 00:49:29;;;;;;;21.43;18.90;;;;;;;;;;5099582;28;20234;-82
2023/01/31 00:51:56;;;;;;;22.02;19.63;;;;;;;;;;5101291;28;20483;-82
2023/01/31 00:54:24;;;;;;;22.88;19.17;;;;;;;;;;5102130;28;20663;-82
2023/01/31 00:56:51;;;;;;;20.35;18.70;;;;;;;;;;5101711;28;20596;-82
2023/01/31 00:59:19;;;;;;;19.00;17.58;;;;;;;;;;5101609;28;20216;-82
2023/01/31 01:01:46;;;;;;;20.65;18.70;;;;;;;;;;5101433;28;20218;-82
2023/01/31 01:04:13;;;;;;;22.15;18.88;;;;;;;;;;5101019;28;20186;-83
2023/01/31 01:06:40;;;;;;;18.85;17.52;;;;;;;;;;5103512;28;20230;-82
2023/01/31 01:09:07;;;;;;;23.38;20.80;;;;;;;;;;5100569;28;20201;-82
2023/01/31 01:11:36;;;;;;;20.70;19.17;;;;;;;;;;5100318;28;20608;-81
2023/01/31 01:14:03;;;;;;;27.48;19.80;;;;;;;;;;5100822;28;20209;-82
2023/01/31 01:16:32;;;;;;;21.42;19.30;;;;;;;;;;5099627;28;20225;-82
2023/01/31 01:18:59;;;;;;;20.20;18.55;;;;;;;;;;5100156;28;20209;-82
2023/01/31 01:21:27;;;;;;;21.00;19.17;;;;;;;;;;5099217;28;20545;-82
2023/01/31 01:23:56;;;;;;;19.58;18.15;;;;;;;;;;5100011;28;20578;-82
2023/01/31 01:26:25;;;;;;;21.20;18.92;;;;;;;;;;5099056;28;20251;-82
2023/01/31 01:28:53;;;;;;;21.67;19.40;;;;;;;;;;5099835;28;20680;-82
2023/01/31 01:31:21;;;;;;;21.85;19.75;;;;;;;;;;5099009;28;20217;-82
2023/01/31 01:33:48;;;;;;;18.77;17.35;;;;;;;;;;5101151;28;20736;-82
2023/01/31 01:36:17;;;;;;;21.67;19.25;;;;;;;;;;5099872;28;20296;-82
2023/01/31 01:38:44;;;;;;;19.83;18.25;;;;;;;;;;5100592;28;20270;-82
2023/01/31 01:41:12;;;;;;;28.17;17.95;;;;;;;;;;5099564;28;20737;-83
2023/01/31 01:43:40;;;;;;;20.05;18.48;;;;;;;;;;5099948;28;20198;-82
2023/01/31 01:46:09;;;;;;;20.98;19.00;;;;;;;;;;5100003;28;20252;-82
2023/01/31 01:48:36;;;;;;;20.02;18.10;;;;;;;;;;5100576;28;20262;-82
2023/01/31 01:51:04;;;;;;;18.88;17.65;;;;;;;;;;5102412;28;20235;-81
2023/01/31 01:53:31;;;;;;;24.40;19.08;;;;;;;;;;5101900;28;20235;-82
2023/01/31 01:56:01;;;;;;;21.40;19.48;;;;;;;;;;5100403;28;20687;-82
2023/01/31 01:58:31;;;;;;;18.45;17.45;;;;;;;;;;5099370;28;20679;-82
2023/01/31 02:00:58;;;;;;;22.15;19.23;;;;;;;;;;5100060;28;20209;-82
2023/01/31 02:03:27;;;;;;;19.77;18.00;;;;;;;;;;5099723;28;20236;-82
2023/01/31 02:05:56;;;;;;;33.88;19.15;;;;;;;;;;5099382;28;20234;-82
2023/01/31 02:08:25;;;;;;;21.70;19.67;;;;;;;;;;5101081;28;20287;-82
2023/01/31 02:10:54;;;;;;;21.45;17.95;;;;;;;;;;5103945;28;20213;-83
2023/01/31 02:13:22;;;;;;;25.42;17.95;;;;;;;;;;5103016;28;20188;-82
2023/01/31 02:15:49;;;;;;;19.40;17.75;;;;;;;;;;5100571;28;20232;-82
2023/01/31 02:18:17;;;;;;;20.45;18.40;;;;;;;;;;5102139;28;20580;-82
2023/01/31 02:21:18;;;;;;;19.52;18.13;;;;;;;;;;5109121;28;20240;-82
2023/01/31 02:23:57;;;;;;;20.00;18.05;;;;;;;;;;5099235;28;20212;-82
2023/01/31 02:26:33;;;;;;;19.10;17.95;;;;;;;;;;5099509;28;20238;-81
2023/01/31 02:29:11;;;;;;;20.80;18.70;;;;;;;;;;5104054;28;20212;-82
2023/01/31 02:31:59;;;;;;;20.00;18.17;;;;;;;;;;5101143;28;20197;-82
2023/01/31 02:34:29;;;;;;;19.25;17.60;;;;;;;;;;5100466;28;20190;-82
2023/01/31 02:37:01;;;;;;;20.40;18.70;;;;;;;;;;5099806;28;20534;-82
2023/01/31 02:39:31;;;;;;;19.92;18.17;;;;;;;;;;5099740;28;20219;-82
2023/01/31 02:42:03;;;;;;;19.60;18.10;;;;;;;;;;5098987;28;20239;-82
2023/01/31 02:47:21;;;;;;;18.30;17.25;;;;;;;;;;5101826;28;20231;-82
2023/01/31 02:49:52;;;;;;;19.90;18.05;;;;;;;;;;5097952;28;20190;-81
2023/01/31 02:52:23;;;;;;;20.20;18.35;;;;;;;;;;5097564;28;20201;-82
2023/01/31 02:57:39;;;;;;;20.40;18.38;;;;;;;;;;5098343;28;20255;-81
2023/01/31 03:00:06;;;;;;;20.10;18.25;;;;;;;;;;5098511;28;20624;-82
2023/01/31 03:02:33;;;;;;;18.55;17.17;;;;;;;;;;5099007;28;20286;-82
2023/01/31 03:05:02;;;;;;;19.42;18.00;;;;;;;;;;5099736;28;20239;-83
2023/01/31 03:07:32;;;;;;;22.95;18.70;;;;;;;;;;5101440;28;20632;-82
2023/01/31 03:10:03;;;;;;;23.15;18.88;;;;;;;;;;5099971;28;20201;-82
2023/01/31 03:12:44;;;;;;;20.50;18.60;;;;;;;;;;5098385;28;20255;-82
2023/01/31 03:15:20;;;;;;;19.45;17.42;;;;;;;;;;5099161;28;20230;-82
2023/01/31 03:17:51;;;;;;;22.08;18.58;;;;;;;;;;5097900;28;20190;-82
2023/01/31 03:20:20;;;;;;;19.55;18.17;;;;;;;;;;5098071;28;20182;-83
2023/01/31 03:22:49;;;;;;;20.55;18.63;;;;;;;;;;5098047;28;20197;-85
2023/01/31 03:25:18;;;;;;;21.48;19.33;;;;;;;;;;5097872;28;20243;-82
2023/01/31 03:27:48;;;;;;;20.65;19.00;;;;;;;;;;5098248;28;20258;-82
2023/01/31 03:30:18;;;;;;;20.83;18.70;;;;;;;;;;5098743;28;20208;-82
2023/01/31 03:32:49;;;;;;;21.58;19.40;;;;;;;;;;5099202;28;20239;-82
2023/01/31 03:35:16;;;;;;;20.40;18.60;;;;;;;;;;5097692;28;20249;-82
2023/01/31 03:37:48;;;;;;;20.50;18.50;;;;;;;;;;5098300;28;20200;-82
2023/01/31 03:40:17;;;;;;;21.77;19.85;;;;;;;;;;5098460;28;20681;-81
2023/01/31 03:42:49;;;;;;;22.27;19.25;;;;;;;;;;5098655;28;20201;-82
2023/01/31 03:45:19;;;;;;;22.08;19.83;;;;;;;;;;5098172;28;20232;-82
2023/01/31 03:47:47;;;;;;;20.73;18.65;;;;;;;;;;5097047;28;20218;-82
2023/01/31 03:50:16;;;;;;;22.10;20.00;;;;;;;;;;5100173;28;20210;-82
2023/01/31 03:52:46;;;;;;;25.38;20.05;;;;;;;;;;5096762;28;20201;-82
2023/01/31 03:55:16;;;;;;;22.15;19.95;;;;;;;;;;5095816;28;20228;-81
2023/01/31 03:57:45;;;;;;;20.52;18.52;;;;;;;;;;5096768;28;20236;-81
2023/01/31 04:00:14;;;;;;;24.23;18.85;;;;;;;;;;5100788;28;20204;-82
2023/01/31 04:02:41;;;;;;;22.88;20.40;;;;;;;;;;5099283;28;20255;-83
2023/01/31 04:05:11;;;;;;;20.42;18.20;;;;;;;;;;5097913;28;20225;-82
2023/01/31 04:07:38;;;;;;;22.92;20.05;;;;;;;;;;5097252;28;20225;-81
2023/01/31 04:10:07;;;;;;;24.13;21.35;;;;;;;;;;5097967;28;20259;-81
2023/01/31 04:12:37;;;;;;;20.77;18.88;;;;;;;;;;5096675;28;20209;-82
2023/01/31 04:15:04;;;;;;;99.95;55.75;;;;;;;;;;5100763;28;20645;-82
2023/01/31 04:17:32;;;;;;;29.17;26.23;;;;;;;;;;5099295;28;20200;-81
2023/01/31 04:19:59;;;;;;;149.20;92.95;;;;;;;;;;5097705;28;20694;-82
2023/01/31 04:22:26;;;;;;;28.15;25.20;;;;;;;;;;5097200;28;20209;-82
2023/01/31 04:24:53;;;;;;;32.00;27.08;;;;;;;;;;5096618;28;20270;-82
2023/01/31 04:27:20;;;;;;;27.65;21.92;;;;;;;;;;5097239;28;20224;-82
2023/01/31 04:29:48;;;;;;;24.48;21.75;;;;;;;;;;5102771;28;20204;-82
2023/01/31 04:32:15;;;;;;;24.70;22.20;;;;;;;;;;5101915;28;20260;-82
2023/01/31 04:34:42;;;;;;;22.90;20.80;;;;;;;;;;5101962;28;20229;-82
2023/01/31 04:37:10;;;;;;;23.27;20.90;;;;;;;;;;5101067;28;20742;-82
2023/01/31 04:39:37;;;;;;;21.90;19.95;;;;;;;;;;5101244;28;20201;-82
2023/01/31 04:42:04;;;;;;;21.65;19.85;;;;;;;;;;5100402;28;20213;-82
2023/01/31 04:44:31;;;;;;;20.48;18.55;;;;;;;;;;5101058;28;20680;-83
2023/01/31 04:46:59;;;;;;;26.85;20.27;;;;;;;;;;5100067;28;20220;-82
2023/01/31 04:49:26;;;;;;;20.70;18.85;;;;;;;;;;5100395;28;20200;-82
2023/01/31 04:51:53;;;;;;;23.80;20.05;;;;;;;;;;5100674;28;20205;-82
2023/01/31 04:54:20;;;;;;;22.30;19.92;;;;;;;;;;5101244;28;20717;-82
2023/01/31 04:56:47;;;;;;;21.13;19.02;;;;;;;;;;5100602;28;20211;-82
2023/01/31 04:59:14;;;;;;;21.75;19.70;;;;;;;;;;5103153;28;20270;-82
2023/01/31 05:01:41;;;;;;;19.20;18.15;;;;;;;;;;5100769;28;20625;-82
2023/01/31 05:04:11;;;;;;;21.48;19.65;;;;;;;;;;5101672;28;20297;-82
2023/01/31 05:06:38;;;;;;;22.48;20.38;;;;;;;;;;5100764;28;20579;-82
2023/01/31 05:09:06;;;;;;;22.95;20.75;;;;;;;;;;5099772;28;20195;-82
2023/01/31 05:11:33;;;;;;;23.15;20.85;;;;;;;;;;5097853;28;20577;-82
2023/01/31 05:14:00;;;;;;;22.30;19.95;;;;;;;;;;5098089;28;20207;-82
2023/01/31 05:16:27;;;;;;;23.38;21.30;;;;;;;;;;5098632;28;20224;-82
2023/01/31 05:18:54;;;;;;;21.88;20.15;;;;;;;;;;5099675;28;20214;-83
2023/01/31 05:21:23;;;;;;;24.92;22.38;;;;;;;;;;5097859;28;20283;-82
2023/01/31 05:23:50;;;;;;;24.33;21.77;;;;;;;;;;5098369;28;20216;-82
2023/01/31 05:26:17;;;;;;;22.73;20.75;;;;;;;;;;5098639;28;20225;-82
2023/01/31 05:28:44;;;;;;;24.38;21.65;;;;;;;;;;5100119;28;20198;-81
2023/01/31 05:31:12;;;;;;;25.23;20.33;;;;;;;;;;5097913;28;20208;-83
2023/01/31 05:33:39;;;;;;;28.83;20.58;;;;;;;;;;5097611;28;20753;-81
2023/01/31 05:36:06;;;;;;;22.67;20.63;;;;;;;;;;5097548;28;20275;-82
2023/01/31 05:38:34;;;;;;;19.85;18.38;;;;;;;;;;5098538;28;20201;-82
2023/01/31 05:41:01;;;;;;;23.90;21.50;;;;;;;;;;5098243;28;20607;-82
2023/01/31 05:43:28;;;;;;;23.10;21.33;;;;;;;;;;5100538;28;20262;-82
2023/01/31 05:45:55;;;;;;;22.17;20.23;;;;;;;;;;5097942;28;20217;-82
2023/01/31 05:48:22;;;;;;;30.83;21.60;;;;;;;;;;5098812;28;20691;-82
2023/01/31 05:50:50;;;;;;;23.52;21.13;;;;;;;;;;5098592;28;20617;-82
2023/01/31 05:53:17;;;;;;;20.60;19.20;;;;;;;;;;5097985;28;20251;-82
2023/01/31 05:55:46;;;;;;;21.35;19.75;;;;;;;;;;5099120;28;20237;-82
2023/01/31 05:58:13;;;;;;;24.70;22.25;;;;;;;;;;5099458;28;20201;-82
2023/01/31 06:00:40;;;;;;;24.20;21.60;;;;;;;;;;5099678;28;20210;-82
2023/01/31 06:03:07;;;;;;;22.27;20.27;;;;;;;;;;5098402;28;20262;-83
2023/01/31 06:05:34;;;;;;;23.60;21.58;;;;;;;;;;5098878;28;20765;-81
2023/01/31 06:08:01;;;;;;;26.92;21.73;;;;;;;;;;5098264;28;20317;-82
2023/01/31 06:10:29;;;;;;;24.20;21.73;;;;;;;;;;5099165;28;20258;-82
2023/01/31 06:12:57;;;;;;;25.75;23.33;;;;;;;;;;5098152;28;20207;-83
2023/01/31 06:15:24;;;;;;;22.83;21.05;;;;;;;;;;5097606;28;20223;-82
2023/01/31 06:17:51;;;;;;;26.35;22.08;;;;;;;;;;5100034;28;20269;-82
2023/01/31 06:20:18;;;;;;;23.25;21.00;;;;;;;;;;5100128;28;20209;-82
2023/01/31 06:22:45;;;;;;;22.77;21.08;;;;;;;;;;5100431;28;20249;-81
2023/01/31 06:25:12;;;;;;;22.70;20.38;;;;;;;;;;5099430;28;20225;-82
2023/01/31 06:27:39;;;;;;;28.55;21.38;;;;;;;;;;5099361;28;20274;-82
2023/01/31 06:30:09;;;;;;;23.70;21.05;;;;;;;;;;5099015;28;20204;-82
2023/01/31 06:32:36;;;;;;;25.65;23.27;;;;;;;;;;5098351;28;20248;-82
2023/01/31 06:35:03;;;;;;;25.75;22.00;;;;;;;;;;5097722;28;20273;-82
2023/01/31 06:37:30;;;;;;;23.90;21.88;;;;;;;;;;5098437;28;20189;-82
2023/01/31 06:39:58;;;;;;;24.33;21.60;;;;;;;;;;5097762;28;20743;-82
2023/01/31 06:42:25;;;;;;;21.90;20.25;;;;;;;;;;5097887;28;20218;-82
2023/01/31 06:44:52;;;;;;;23.77;21.52;;;;;;;;;;5097553;28;20259;-82
2023/01/31 06:47:20;;;;;;;21.33;19.77;;;;;;;;;;5097425;28;20827;-82
2023/01/31 06:49:47;;;;;;;25.38;22.58;;;;;;;;;;5097780;28;20201;-82
2023/01/31 06:52:14;;;;;;;23.95;21.52;;;;;;;;;;5096886;28;20214;-81
2023/01/31 06:54:41;;;;;;;23.20;20.85;;;;;;;;;;5098242;28;20252;-82
2023/01/31 06:57:08;;;;;;;23.42;21.05;;;;;;;;;;5098416;28;20678;-82
2023/01/31 06:59:35;;;;;;;27.63;22.30;;;;;;;;;;5098288;28;20582;-81
2023/01/31 07:02:02;;;;;;;22.52;20.90;;;;;;;;;;5097301;28;20217;-82
2023/01/31 07:04:30;;;;;;;22.75;20.65;;;;;;;;;;5097978;28;20269;-82
2023/01/31 07:06:57;;;;;;;24.00;21.35;;;;;;;;;;5097827;28;20193;-83
2023/01/31 07:09:24;;;;;;;23.85;21.58;;;;;;;;;;5097828;28;20204;-82
2023/01/31 07:11:51;;;;;;;25.60;22.90;;;;;;;;;;5097274;28;20260;-82
2023/01/31 07:14:18;;;;;;;24.45;21.90;;;;;;;;;;5097740;28;20259;-83
2023/01/31 07:16:45;;;;;;;21.65;20.05;;;;;;;;;;5097859;28;20289;-82
2023/01/31 07:19:12;;;;;;;27.27;24.27;;;;;;;;;;5098145;28;20201;-82
2023/01/31 07:21:41;;;;;;;30.38;23.73;;;;;;;;;;5097456;28;20667;-82
2023/01/31 07:24:08;;;;;;;24.42;22.45;;;;;;;;;;5096817;28;20209;-82
2023/01/31 07:26:35;;;;;;;20.88;19.58;;;;;;;;;;5097369;28;20255;-81
2023/01/31 07:29:02;;;;;;;29.00;23.20;;;;;;;;;;5097423;28;20632;-82
2023/01/31 07:31:29;;;;;;;23.60;21.58;;;;;;;;;;5097564;28;20202;-82
2023/01/31 07:33:56;;;;;;;28.13;23.98;;;;;;;;;;5097601;28;20255;-81
2023/01/31 07:36:25;;;;;;;26.33;23.55;;;;;;;;;;5094406;28;20255;-79
2023/01/31 07:38:55;;;;;;;25.95;23.33;;;;;;;;;;5095292;28;20292;-79
2023/01/31 07:41:22;;;;;;;21.55;19.95;;;;;;;;;;5095081;28;20581;-79
2023/01/31 07:43:49;;;;;;;26.25;21.67;;;;;;;;;;5094964;28;20666;-79
2023/01/31 07:46:16;;;;;;;27.15;23.85;;;;;;;;;;5094427;28;20226;-79
2023/01/31 07:48:43;;;;;;;22.23;20.55;;;;;;;;;;5095061;28;20559;-79
2023/01/31 07:51:11;;;;;;;24.15;22.15;;;;;;;;;;5095090;28;20216;-80
2023/01/31 07:53:40;;;;;;;32.30;25.27;;;;;;;;;;5095275;28;20204;-77
2023/01/31 07:56:10;;;;;;;25.35;23.13;;;;;;;;;;5078291;28;20272;-77
2023/01/31 07:58:37;;;;;;;23.23;21.20;;;;;;;;;;5073664;28;20285;-78
2023/01/31 08:03:50;;;;;;;25.15;22.77;;;;;;;;;;5076539;28;20223;-79
2023/01/31 08:06:17;;;;;;;20.60;19.15;;;;;;;;;;5076904;28;20226;-82
2023/01/31 08:08:44;;;;;;;25.77;23.70;;;;;;;;;;5077178;28;20634;-83
2023/01/31 08:11:13;;;;;;;23.10;21.30;;;;;;;;;;5077183;28;20206;-84
2023/01/31 08:13:40;;;;;;;23.38;21.27;;;;;;;;;;5077505;28;20206;-83
2023/01/31 08:16:08;;;;;;;26.95;24.70;;;;;;;;;;5076737;28;20226;-84
2023/01/31 08:18:35;;;;;;;22.55;20.75;;;;;;;;;;5075681;28;20210;-79
2023/01/31 08:21:02;;;;;;;27.20;24.95;;;;;;;;;;5075739;28;20618;-81
2023/01/31 08:23:29;;;;;;;26.05;23.65;;;;;;;;;;5075319;28;20285;-78
2023/01/31 08:26:00;;;;;;;23.40;21.73;;;;;;;;;;5076523;28;20221;-81
2023/01/31 08:28:28;;;;;;;26.17;23.08;;;;;;;;;;5076587;28;20218;-77
2023/01/31 08:30:55;;;;;;;23.35;21.45;;;;;;;;;;5077454;28;20201;-85
2023/01/31 08:33:22;;;;;;;22.90;20.80;;;;;;;;;;5077381;28;20263;-81
2023/01/31 08:35:49;;;;;;;24.73;22.48;;;;;;;;;;5076699;28;20630;-77
2023/01/31 08:38:16;;;;;;;26.00;23.27;;;;;;;;;;5076551;28;20198;-84
2023/01/31 08:40:44;;;;;;;25.75;23.52;;;;;;;;;;5077331;28;20559;-81
2023/01/31 08:43:11;;;;;;;25.10;22.70;;;;;;;;;;5076140;28;20258;-77
2023/01/31 08:45:39;;;;;;;23.02;21.52;;;;;;;;;;5073972;28;20837;-78
2023/01/31 08:48:06;;;;;;;26.58;20.40;;;;;;;;;;5073228;28;20225;-78
2023/01/31 08:50:34;;;;;;;25.08;21.40;;;;;;;;;;5073583;28;20256;-78
2023/01/31 08:53:02;;;;;;;22.13;20.20;;;;;;;;;;5073164;28;20202;-79
2023/01/31 08:55:29;;;;;;;23.65;21.38;;;;;;;;;;5076455;28;20224;-85
2023/01/31 08:57:56;;;;;;;23.02;21.35;;;;;;;;;;5077652;28;20208;-87
2023/01/31 09:00:24;;;;;;;24.00;22.00;;;;;;;;;;5074512;28;20289;-90
2023/01/31 09:02:56;;;;;;;24.23;22.10;;;;;;;;;;5075115;28;20206;-88
2023/01/31 09:05:23;;;;;;;22.35;20.48;;;;;;;;;;5076533;28;20727;-83
2023/01/31 09:07:50;;;;;;;26.33;20.98;;;;;;;;;;5081238;28;20229;-83
2023/01/31 09:10:18;;;;;;;23.70;21.35;;;;;;;;;;5080936;28;20560;-84
2023/01/31 09:12:45;;;;;;;24.17;22.30;;;;;;;;;;5078425;28;20263;-80
2023/01/31 09:15:12;;;;;;;21.00;19.15;;;;;;;;;;5080251;28;20255;-88
2023/01/31 09:17:40;;;;;;;27.25;24.00;;;;;;;;;;5081713;28;20195;-87
2023/01/31 09:20:10;;;;;;;38.22;25.08;;;;;;;;;;5081589;28;20201;-89
2023/01/31 09:22:37;;;;;;;27.00;24.05;;;;;;;;;;5080448;28;20270;-84
2023/01/31 09:25:04;;;;;;;26.25;23.77;;;;;;;;;;5098738;28;20641;-75
2023/01/31 09:27:31;;;;;;;26.67;23.98;;;;;;;;;;5096970;28;20261;-76
2023/01/31 09:29:58;;;;;;;26.17;23.58;;;;;;;;;;5097348;28;20204;-76
2023/01/31 09:32:25;;;;;;;25.27;23.58;;;;;;;;;;5096520;28;20290;-76
2023/01/31 09:34:52;;;;;;;25.58;23.77;;;;;;;;;;5100847;28;20279;-80
2023/01/31 09:37:21;;;;;;;33.90;27.35;;;;;;;;;;5098083;28;20583;-76
2023/01/31 09:39:48;;;;;;;25.42;23.52;;;;;;;;;;5097266;28;20208;-76
2023/01/31 09:42:19;;;;;;;25.33;23.42;;;;;;;;;;5097311;28;20208;-76
2023/01/31 09:44:49;;;;;;;24.98;23.17;;;;;;;;;;5097111;28;20227;-77
2023/01/31 09:47:19;;;;;;;25.58;23.38;;;;;;;;;;5097122;28;20217;-76
2023/01/31 09:49:49;;;;;;;26.55;24.35;;;;;;;;;;5096795;28;20316;-76
2023/01/31 09:52:16;;;;;;;27.95;25.42;;;;;;;;;;5096665;28;20207;-77
2023/01/31 09:54:45;;;;;;;23.55;21.98;;;;;;;;;;5096234;28;20225;-76
2023/01/31 09:57:20;;;;;;;26.02;23.75;;;;;;;;;;5096801;28;20239;-76
2023/01/31 09:59:49;;;;;;;28.83;26.25;;;;;;;;;;5096657;28;20187;-76
2023/01/31 10:02:30;;;;;;;23.77;22.10;;;;;;;;;;5098614;28;20288;-77
2023/01/31 10:05:04;;;;;;;24.88;23.08;;;;;;;;;;5098920;28;20628;-76
2023/01/31 10:07:33;;;;;;;28.30;25.50;;;;;;;;;;5096547;28;20185;-76
2023/01/31 10:10:06;;;;;;;23.70;22.30;;;;;;;;;;5096740;28;20649;-76
2023/01/31 10:12:34;;;;;;;28.13;25.70;;;;;;;;;;5095919;28;20252;-76
2023/01/31 10:15:04;;;;;;;31.50;28.30;;;;;;;;;;5096918;28;20225;-77
2023/01/31 10:17:34;;;;;;;28.85;26.55;;;;;;;;;;5096260;28;20205;-76
2023/01/31 10:20:03;;;;;;;26.15;23.60;;;;;;;;;;5096158;28;20590;-76
2023/01/31 10:22:35;;;;;;;28.38;25.83;;;;;;;;;;5095351;28;20209;-76
2023/01/31 10:25:07;;;;;;;26.98;25.10;;;;;;;;;;5095584;28;20225;-76
2023/01/31 10:27:37;;;;;;;29.73;27.40;;;;;;;;;;5095629;28;20190;-76
2023/01/31 10:30:05;;;;;;;33.70;30.13;;;;;;;;;;5096363;28;20209;-77
2023/01/31 10:32:36;;;;;;;35.38;31.83;;;;;;;;;;5094758;28;20729;-76
2023/01/31 10:35:04;;;;;;;32.50;30.08;;;;;;;;;;5096339;28;20279;-77
2023/01/31 10:37:35;;;;;;;35.15;31.45;;;;;;;;;;5095424;28;20197;-76
2023/01/31 10:40:06;;;;;;;32.35;29.95;;;;;;;;;;5095555;28;20194;-76
2023/01/31 10:42:35;;;;;;;34.53;31.40;;;;;;;;;;5095047;28;20224;-76
2023/01/31 10:45:03;;;;;;;37.92;34.53;;;;;;;;;;5095773;28;20231;-77
2023/01/31 10:47:32;;;;;;;35.97;32.28;;;;;;;;;;5095218;28;20199;-77
2023/01/31 10:49:59;;;;;;;39.20;35.47;;;;;;;;;;5095706;28;20249;-76
2023/01/31 10:52:40;;;;;;;38.28;35.08;;;;;;;;;;5095440;28;20213;-77
2023/01/31 10:55:16;;;;;;;33.95;31.60;;;;;;;;;;5096066;28;20248;-76
2023/01/31 10:57:43;;;;;;;33.17;30.60;;;;;;;;;;5095610;28;20255;-76
2023/01/31 11:00:14;;;;;;;32.95;30.50;;;;;;;;;;5095631;28;20197;-76
2023/01/31 11:02:41;;;;;;;38.15;34.70;;;;;;;;;;5095409;28;20216;-76
2023/01/31 11:05:15;;;;;;;36.03;33.00;;;;;;;;;;5096537;28;20707;-77
2023/01/31 11:07:42;;;;;;;39.47;35.70;;;;;;;;;;5096619;28;20185;-76
2023/01/31 11:10:23;;;;;;;36.58;33.65;;;;;;;;;;5096644;28;20224;-76
2023/01/31 11:12:53;;;;;;;39.28;36.00;;;;;;;;;;5094999;28;20242;-76
2023/01/31 11:15:21;;;;;;;30.48;28.40;;;;;;;;;;5095260;28;20364;-76
2023/01/31 11:17:48;;;;;;;32.10;29.85;;;;;;;;;;5095356;28;20231;-77
2023/01/31 11:20:24;;;;;;;26.70;24.70;;;;;;;;;;5096949;28;20259;-76
2023/01/31 11:22:52;;;;;;;25.38;23.75;;;;;;;;;;5095896;28;20212;-76
2023/01/31 11:25:21;;;;;;;23.42;21.90;;;;;;;;;;5097617;28;20706;-77
2023/01/31 11:27:49;;;;;;;34.42;24.38;;;;;;;;;;5096240;28;20636;-76
2023/01/31 11:30:22;;;;;;;29.35;26.52;;;;;;;;;;5095791;28;20278;-76
2023/01/31 11:32:49;;;;;;;30.40;27.10;;;;;;;;;;5096073;28;20610;-76
2023/01/31 11:35:24;;;;;;;25.83;23.35;;;;;;;;;;5096142;28;20228;-76
2023/01/31 11:37:52;;;;;;;33.65;30.10;;;;;;;;;;5096079;28;20241;-76
2023/01/31 11:40:21;;;;;;;30.88;27.83;;;;;;;;;;5096964;28;20197;-76
2023/01/31 11:42:56;;;;;;;40.50;33.67;;;;;;;;;;5096258;28;20583;-76
2023/01/31 11:45:26;;;;;;;36.40;33.15;;;;;;;;;;5094861;28;20229;-76
2023/01/31 11:47:54;;;;;;;28.13;25.90;;;;;;;;;;5095097;28;20201;-75
2023/01/31 11:50:22;;;;;;;26.20;24.50;;;;;;;;;;5094465;28;20221;-76
2023/01/31 11:52:54;;;;;;;23.92;22.33;;;;;;;;;;5094332;28;20208;-76
2023/01/31 11:55:21;;;;;;;30.77;27.88;;;;;;;;;;5094527;28;20230;-76
2023/01/31 11:57:55;;;;;;;25.13;23.40;;;;;;;;;;5094833;28;20181;-76
2023/01/31 12:00:25;;;;;;;28.30;26.38;;;;;;;;;;5095573;28;20337;-76
2023/01/31 12:02:54;;;;;;;29.52;27.38;;;;;;;;;;5095248;28;20270;-76
2023/01/31 12:05:22;;;;;;;24.33;22.63;;;;;;;;;;5095597;28;20217;-76
2023/01/31 12:07:52;;;;;;;28.98;26.10;;;;;;;;;;5094852;28;20308;-76
2023/01/31 12:10:31;;;;;;;31.33;28.30;;;;;;;;;;5094568;28;20320;-76
2023/01/31 12:12:59;;;;;;;29.08;26.60;;;;;;;;;;5094256;28;20287;-76
2023/01/31 12:15:29;;;;;;;29.48;26.90;;;;;;;;;;5095427;28;20271;-76
2023/01/31 12:17:56;;;;;;;29.48;27.23;;;;;;;;;;5096432;28;20205;-76
2023/01/31 12:20:29;;;;;;;26.95;24.67;;;;;;;;;;5097463;28;20206;-76
2023/01/31 12:23:01;;;;;;;30.73;27.67;;;;;;;;;;5094852;28;20239;-76
2023/01/31 12:25:34;;;;;;;26.73;24.35;;;;;;;;;;5097043;28;20229;-76
2023/01/31 12:28:07;;;;;;;25.73;23.95;;;;;;;;;;5096274;28;20246;-76
2023/01/31 12:30:42;;;;;;;29.90;27.15;;;;;;;;;;5096038;28;20210;-76
2023/01/31 12:33:14;;;;;;;27.13;25.02;;;;;;;;;;5094601;28;20208;-76
2023/01/31 12:35:45;;;;;;;32.17;29.52;;;;;;;;;;5095823;28;20225;-88
2023/01/31 12:38:30;;;;;;;27.63;25.27;;;;;;;;;;5097993;28;20226;-89
2023/01/31 12:41:02;;;;;;;29.63;27.15;;;;;;;;;;5098088;28;20206;-76
2023/01/31 12:43:45;;;;;;;31.38;28.48;;;;;;;;;;5094858;28;20720;-76
2023/01/31 12:46:18;;;;;;;30.85;27.58;;;;;;;;;;5096955;28;20226;-76
2023/01/31 12:48:57;;;;;;;27.98;26.02;;;;;;;;;;5095692;28;20723;-76
2023/01/31 12:51:30;;;;;;;26.58;24.50;;;;;;;;;;5100962;28;20567;-79
2023/01/31 12:54:03;;;;;;;31.50;28.90;;;;;;;;;;5098924;28;20187;-77
2023/01/31 12:56:35;;;;;;;32.67;29.92;;;;;;;;;;5098453;28;20236;-78
2023/01/31 12:59:06;;;;;;;28.75;26.52;;;;;;;;;;5101074;28;20239;-77
2023/01/31 13:01:37;;;;;;;32.15;28.88;;;;;;;;;;5098276;28;20258;-79
2023/01/31 13:04:17;;;;;;;33.10;30.52;;;;;;;;;;5099867;28;20189;-78
2023/01/31 13:06:46;;;;;;;33.25;30.45;;;;;;;;;;5098855;28;20193;-78
2023/01/31 13:09:18;;;;;;;35.75;32.55;;;;;;;;;;5098478;28;20624;-78
2023/01/31 13:11:49;;;;;;;34.47;31.35;;;;;;;;;;5098672;28;20190;-89
2023/01/31 13:14:18;;;;;;;37.88;34.72;;;;;;;;;;5094511;28;20211;-84
2023/01/31 13:16:48;;;;;;;30.55;28.45;;;;;;;;;;5089334;28;20640;-83
2023/01/31 13:19:16;;;;;;;37.78;34.58;;;;;;;;;;5086225;28;20206;-83
2023/01/31 13:21:45;;;;;;;34.90;32.17;;;;;;;;;;5087284;28;20206;-82
2023/01/31 13:24:13;;;;;;;41.65;38.22;;;;;;;;;;5087776;28;20201;-83
2023/01/31 13:26:43;;;;;;;33.03;30.52;;;;;;;;;;5088332;28;20217;-83
2023/01/31 13:29:13;;;;;;;41.88;37.95;;;;;;;;;;5082833;28;20671;-81
2023/01/31 13:31:42;;;;;;;38.30;34.40;;;;;;;;;;5080613;28;20206;-80
2023/01/31 13:34:16;;;;;;;48.95;44.53;;;;;;;;;;5080031;28;20206;-80
2023/01/31 13:36:44;;;;;;;39.65;37.10;;;;;;;;;;5083169;28;20720;-79
2023/01/31 13:39:15;;;;;;;53.92;48.60;;;;;;;;;;5085378;28;20206;-80
2023/01/31 13:41:42;;;;;;;53.08;48.90;;;;;;;;;;5084836;28;20212;-80
2023/01/31 13:44:12;;;;;;;50.65;47.00;;;;;;;;;;5086521;28;20659;-80
2023/01/31 13:46:43;;;;;;;48.78;45.45;;;;;;;;;;5088587;28;20194;-79
2023/01/31 13:49:15;;;;;;;52.00;48.10;;;;;;;;;;5089300;28;20191;-80
2023/01/31 13:51:45;;;;;;;43.58;40.70;;;;;;;;;;5081173;28;20183;-80
2023/01/31 13:54:17;;;;;;;49.47;45.63;;;;;;;;;;5080710;28;20196;-80
2023/01/31 13:56:49;;;;;;;42.10;39.33;;;;;;;;;;5082000;28;20194;-79
2023/01/31 13:59:19;;;;;;;48.20;44.80;;;;;;;;;;5080239;28;20206;-80
2023/01/31 14:01:47;;;;;;;48.50;45.35;;;;;;;;;;5079006;28;20205;-81
2023/01/31 14:04:23;;;;;;;54.88;50.35;;;;;;;;;;5082540;28;20240;-79
2023/01/31 14:07:14;;;;;;;49.85;46.42;;;;;;;;;;5082087;28;20237;-80
2023/01/31 14:09:43;;;;;;;40.83;38.55;;;;;;;;;;5081166;28;20251;-79
2023/01/31 14:12:26;;;;;;;47.85;44.20;;;;;;;;;;5079550;28;20199;-80
2023/01/31 14:14:54;;;;;;;45.38;42.58;;;;;;;;;;5079668;28;20226;-81
2023/01/31 14:17:36;;;;;;;43.38;40.20;;;;;;;;;;5079796;28;20252;-80
2023/01/31 14:20:05;;;;;;;38.40;36.03;;;;;;;;;;5078965;28;20228;-80
2023/01/31 14:22:34;;;;;;;41.13;38.05;;;;;;;;;;5096124;28;20213;-80
2023/01/31 14:25:02;;;;;;;42.53;39.15;;;;;;;;;;5099201;28;20221;-80
2023/01/31 14:27:31;;;;;;;41.17;37.83;;;;;;;;;;5099628;28;20240;-88
2023/01/31 14:30:01;;;;;;;38.65;35.90;;;;;;;;;;5100546;28;20267;-83
2023/01/31 14:32:30;;;;;;;36.50;33.97;;;;;;;;;;5099521;28;20609;-83
2023/01/31 14:34:57;;;;;;;49.45;45.47;;;;;;;;;;5099412;28;20226;-81